WAPP/AMQ METAR and TAF weather

Enter ICAO airport designator
Station Type Date Time Source
WAPP METAR 2020/11/28 03:00 UTC NOAA

WAPP 280300Z 29005KT 210V010 9000 FEW015CB SCT017 34/24 Q1008 NOSIG RMK CB TO NE ? E


Station Type Date Time Source
WAPP Decoded METAR 2020/11/28 03:00 UTC NOAA

Ambon / Pattimura, Indonesia (WAPP) 03-42S 128-05E 12M
Nov 27, 2020 - 10:00 PM EST / 2020.11.28 0300 UTC
Wind: from the WNW (290 degrees) at 6 MPH (5 KT) (direction variable):0
Visibility: 5 mile(s):0
Sky conditions: partly cloudy
Weather: Cumulonimbus clouds observed
Temperature: 93 F (34 C)
Heat index: 104.5 F (40.3 C):1
Dew Point: 75 F (24 C)
Relative Humidity: 56%
Pressure (altimeter): 29.77 in. Hg (1008 hPa)
ob: WAPP 280300Z 29005KT 210V010 9000 FEW015CB SCT017 34/24 Q1008 NOSIG RMK CB TO NE ? E
cycle: 3

Station Type Date Time Source
WAPP TAF 2015/06/30 00:57 UTC NOAA

TAF WAPP 302300Z 0100/0124 34006KT 9999 SCT018
TEMPO 0101/0104 7000 -RA BKN017
BECMG 0105/0107 21006KT
BECMG 0109/0111 32006KT

Example: see airport list